sensor_id;sensor_type;location;lat;lon;timestamp;P1;durP1;ratioP1;P2;durP2;ratioP2
24145;SDS011;12308;50.948;4.706;2022-07-21T00:00:34;29.10;;;18.52;;
24145;SDS011;12308;50.948;4.706;2022-07-21T00:02:59;28.95;;;19.10;;
24145;SDS011;12308;50.948;4.706;2022-07-21T00:05:27;26.77;;;19.27;;
24145;SDS011;12308;50.948;4.706;2022-07-21T00:07:53;31.80;;;18.63;;
24145;SDS011;12308;50.948;4.706;2022-07-21T00:10:20;27.95;;;19.95;;
24145;SDS011;12308;50.948;4.706;2022-07-21T00:12:48;28.25;;;18.25;;
24145;SDS011;12308;50.948;4.706;2022-07-21T00:15:15;29.20;;;18.77;;
24145;SDS011;12308;50.948;4.706;2022-07-21T00:17:42;24.70;;;18.10;;
24145;SDS011;12308;50.948;4.706;2022-07-21T00:20:09;24.00;;;18.33;;
24145;SDS011;12308;50.948;4.706;2022-07-21T00:22:35;29.55;;;18.08;;
24145;SDS011;12308;50.948;4.706;2022-07-21T00:25:03;28.48;;;19.25;;
24145;SDS011;12308;50.948;4.706;2022-07-21T00:27:29;31.13;;;20.05;;
24145;SDS011;12308;50.948;4.706;2022-07-21T00:29:55;27.80;;;18.08;;
24145;SDS011;12308;50.948;4.706;2022-07-21T00:32:21;28.08;;;18.65;;
24145;SDS011;12308;50.948;4.706;2022-07-21T00:34:46;27.08;;;18.55;;
24145;SDS011;12308;50.948;4.706;2022-07-21T00:37:12;27.30;;;18.38;;
24145;SDS011;12308;50.948;4.706;2022-07-21T00:39:38;26.45;;;18.73;;
24145;SDS011;12308;50.948;4.706;2022-07-21T00:42:04;30.90;;;19.30;;
24145;SDS011;12308;50.948;4.706;2022-07-21T00:44:30;28.17;;;19.23;;
24145;SDS011;12308;50.948;4.706;2022-07-21T00:46:56;25.90;;;18.70;;
24145;SDS011;12308;50.948;4.706;2022-07-21T00:49:22;25.38;;;19.02;;
24145;SDS011;12308;50.948;4.706;2022-07-21T00:51:48;28.13;;;20.35;;
24145;SDS011;12308;50.948;4.706;2022-07-21T00:54:15;29.08;;;20.30;;
24145;SDS011;12308;50.948;4.706;2022-07-21T00:56:42;28.48;;;20.40;;
24145;SDS011;12308;50.948;4.706;2022-07-21T00:59:08;28.85;;;20.65;;
24145;SDS011;12308;50.948;4.706;2022-07-21T01:01:35;30.30;;;20.38;;
24145;SDS011;12308;50.948;4.706;2022-07-21T01:04:00;28.23;;;20.35;;
24145;SDS011;12308;50.948;4.706;2022-07-21T01:06:26;28.90;;;20.98;;
24145;SDS011;12308;50.948;4.706;2022-07-21T01:08:52;28.35;;;20.85;;
24145;SDS011;12308;50.948;4.706;2022-07-21T01:11:19;29.00;;;20.38;;
24145;SDS011;12308;50.948;4.706;2022-07-21T01:13:46;27.50;;;19.27;;
24145;SDS011;12308;50.948;4.706;2022-07-21T01:16:12;27.30;;;19.52;;
24145;SDS011;12308;50.948;4.706;2022-07-21T01:18:38;27.90;;;19.92;;
24145;SDS011;12308;50.948;4.706;2022-07-21T01:21:27;29.42;;;20.08;;
24145;SDS011;12308;50.948;4.706;2022-07-21T01:24:02;29.95;;;19.73;;
24145;SDS011;12308;50.948;4.706;2022-07-21T01:26:29;26.67;;;20.08;;
24145;SDS011;12308;50.948;4.706;2022-07-21T01:28:56;30.45;;;20.30;;
24145;SDS011;12308;50.948;4.706;2022-07-21T01:31:22;24.48;;;19.42;;
24145;SDS011;12308;50.948;4.706;2022-07-21T01:33:48;26.75;;;19.92;;
24145;SDS011;12308;50.948;4.706;2022-07-21T01:36:15;26.80;;;19.90;;
24145;SDS011;12308;50.948;4.706;2022-07-21T01:38:41;23.63;;;18.85;;
24145;SDS011;12308;50.948;4.706;2022-07-21T01:41:26;29.48;;;20.25;;
24145;SDS011;12308;50.948;4.706;2022-07-21T01:43:54;27.27;;;20.10;;
24145;SDS011;12308;50.948;4.706;2022-07-21T01:46:32;26.50;;;19.90;;
24145;SDS011;12308;50.948;4.706;2022-07-21T01:48:59;31.02;;;19.95;;
24145;SDS011;12308;50.948;4.706;2022-07-21T01:51:25;30.73;;;20.05;;
24145;SDS011;12308;50.948;4.706;2022-07-21T01:53:51;32.17;;;19.95;;
24145;SDS011;12308;50.948;4.706;2022-07-21T01:56:21;28.20;;;20.13;;
24145;SDS011;12308;50.948;4.706;2022-07-21T01:58:48;31.40;;;20.23;;
24145;SDS011;12308;50.948;4.706;2022-07-21T02:01:16;33.08;;;20.83;;
24145;SDS011;12308;50.948;4.706;2022-07-21T02:03:43;31.38;;;21.48;;
24145;SDS011;12308;50.948;4.706;2022-07-21T02:06:10;31.63;;;21.52;;
24145;SDS011;12308;50.948;4.706;2022-07-21T02:08:36;29.55;;;19.90;;
24145;SDS011;12308;50.948;4.706;2022-07-21T02:11:02;29.35;;;19.67;;
24145;SDS011;12308;50.948;4.706;2022-07-21T02:13:28;31.92;;;19.83;;
24145;SDS011;12308;50.948;4.706;2022-07-21T02:15:54;28.50;;;19.98;;
24145;SDS011;12308;50.948;4.706;2022-07-21T02:18:20;30.13;;;19.83;;
24145;SDS011;12308;50.948;4.706;2022-07-21T02:20:46;29.90;;;20.10;;
24145;SDS011;12308;50.948;4.706;2022-07-21T02:23:19;30.77;;;19.27;;
24145;SDS011;12308;50.948;4.706;2022-07-21T02:25:46;29.98;;;18.88;;
24145;SDS011;12308;50.948;4.706;2022-07-21T02:28:12;29.38;;;18.95;;
24145;SDS011;12308;50.948;4.706;2022-07-21T02:30:38;29.27;;;18.42;;
24145;SDS011;12308;50.948;4.706;2022-07-21T02:33:04;30.20;;;18.48;;
24145;SDS011;12308;50.948;4.706;2022-07-21T02:35:29;28.83;;;19.25;;
24145;SDS011;12308;50.948;4.706;2022-07-21T02:37:55;32.53;;;19.17;;
24145;SDS011;12308;50.948;4.706;2022-07-21T02:40:21;33.70;;;18.40;;
24145;SDS011;12308;50.948;4.706;2022-07-21T02:42:47;27.45;;;18.92;;
24145;SDS011;12308;50.948;4.706;2022-07-21T02:45:12;26.13;;;18.55;;
24145;SDS011;12308;50.948;4.706;2022-07-21T02:47:54;28.58;;;17.77;;
24145;SDS011;12308;50.948;4.706;2022-07-21T02:50:21;25.02;;;16.05;;
24145;SDS011;12308;50.948;4.706;2022-07-21T02:52:49;24.40;;;18.00;;
24145;SDS011;12308;50.948;4.706;2022-07-21T02:55:15;29.00;;;16.63;;
24145;SDS011;12308;50.948;4.706;2022-07-21T02:57:41;27.80;;;16.88;;
24145;SDS011;12308;50.948;4.706;2022-07-21T03:00:08;29.33;;;17.00;;
24145;SDS011;12308;50.948;4.706;2022-07-21T03:02:35;25.58;;;15.65;;
24145;SDS011;12308;50.948;4.706;2022-07-21T03:05:01;22.30;;;15.23;;
24145;SDS011;12308;50.948;4.706;2022-07-21T03:07:28;29.70;;;15.23;;
24145;SDS011;12308;50.948;4.706;2022-07-21T03:09:54;23.83;;;15.75;;
24145;SDS011;12308;50.948;4.706;2022-07-21T03:12:20;26.35;;;15.82;;
24145;SDS011;12308;50.948;4.706;2022-07-21T03:14:45;25.20;;;14.70;;
24145;SDS011;12308;50.948;4.706;2022-07-21T03:17:11;25.13;;;15.68;;
24145;SDS011;12308;50.948;4.706;2022-07-21T03:19:36;22.25;;;14.57;;
24145;SDS011;12308;50.948;4.706;2022-07-21T03:22:02;26.95;;;14.93;;
24145;SDS011;12308;50.948;4.706;2022-07-21T03:24:28;21.73;;;15.02;;
24145;SDS011;12308;50.948;4.706;2022-07-21T03:26:55;23.88;;;14.90;;
24145;SDS011;12308;50.948;4.706;2022-07-21T03:29:21;19.63;;;13.88;;
24145;SDS011;12308;50.948;4.706;2022-07-21T03:31:47;23.83;;;15.18;;
24145;SDS011;12308;50.948;4.706;2022-07-21T03:34:13;25.30;;;14.88;;
24145;SDS011;12308;50.948;4.706;2022-07-21T03:36:38;25.83;;;14.07;;
24145;SDS011;12308;50.948;4.706;2022-07-21T03:39:04;28.15;;;16.10;;
24145;SDS011;12308;50.948;4.706;2022-07-21T03:41:30;27.75;;;16.60;;
24145;SDS011;12308;50.948;4.706;2022-07-21T03:43:56;27.60;;;16.42;;
24145;SDS011;12308;50.948;4.706;2022-07-21T03:46:22;33.97;;;17.50;;
24145;SDS011;12308;50.948;4.706;2022-07-21T03:48:48;24.80;;;18.10;;
24145;SDS011;12308;50.948;4.706;2022-07-21T03:51:14;28.48;;;18.70;;
24145;SDS011;12308;50.948;4.706;2022-07-21T03:53:39;33.28;;;16.98;;
24145;SDS011;12308;50.948;4.706;2022-07-21T03:56:05;30.77;;;17.77;;
24145;SDS011;12308;50.948;4.706;2022-07-21T03:58:31;28.02;;;17.00;;
24145;SDS011;12308;50.948;4.706;2022-07-21T04:00:57;23.45;;;17.33;;
24145;SDS011;12308;50.948;4.706;2022-07-21T04:03:22;25.85;;;16.73;;
24145;SDS011;12308;50.948;4.706;2022-07-21T04:05:48;27.65;;;18.00;;
24145;SDS011;12308;50.948;4.706;2022-07-21T04:08:14;27.50;;;17.60;;
24145;SDS011;12308;50.948;4.706;2022-07-21T04:10:40;27.10;;;17.83;;
24145;SDS011;12308;50.948;4.706;2022-07-21T04:13:07;29.98;;;16.38;;
24145;SDS011;12308;50.948;4.706;2022-07-21T04:15:35;29.23;;;17.00;;
24145;SDS011;12308;50.948;4.706;2022-07-21T04:18:01;29.15;;;15.75;;
24145;SDS011;12308;50.948;4.706;2022-07-21T04:20:27;24.15;;;15.15;;
24145;SDS011;12308;50.948;4.706;2022-07-21T04:22:54;23.50;;;14.82;;
24145;SDS011;12308;50.948;4.706;2022-07-21T04:25:20;27.95;;;14.57;;
24145;SDS011;12308;50.948;4.706;2022-07-21T04:27:46;23.60;;;14.07;;
24145;SDS011;12308;50.948;4.706;2022-07-21T04:30:14;27.60;;;14.10;;
24145;SDS011;12308;50.948;4.706;2022-07-21T04:32:41;22.58;;;14.00;;
24145;SDS011;12308;50.948;4.706;2022-07-21T04:35:08;25.30;;;13.75;;
24145;SDS011;12308;50.948;4.706;2022-07-21T04:37:34;28.92;;;15.13;;
24145;SDS011;12308;50.948;4.706;2022-07-21T04:40:00;27.63;;;14.77;;
24145;SDS011;12308;50.948;4.706;2022-07-21T04:42:27;23.38;;;14.00;;
24145;SDS011;12308;50.948;4.706;2022-07-21T04:44:53;22.95;;;14.27;;
24145;SDS011;12308;50.948;4.706;2022-07-21T04:47:19;24.67;;;14.82;;
24145;SDS011;12308;50.948;4.706;2022-07-21T04:49:45;21.77;;;13.95;;
24145;SDS011;12308;50.948;4.706;2022-07-21T04:52:11;26.40;;;14.38;;
24145;SDS011;12308;50.948;4.706;2022-07-21T04:54:36;23.35;;;14.73;;
24145;SDS011;12308;50.948;4.706;2022-07-21T04:57:02;23.42;;;15.20;;
24145;SDS011;12308;50.948;4.706;2022-07-21T04:59:29;26.30;;;14.23;;
24145;SDS011;12308;50.948;4.706;2022-07-21T05:01:56;30.95;;;16.23;;
24145;SDS011;12308;50.948;4.706;2022-07-21T05:04:22;32.72;;;16.48;;
24145;SDS011;12308;50.948;4.706;2022-07-21T05:06:47;37.58;;;17.83;;
24145;SDS011;12308;50.948;4.706;2022-07-21T05:09:13;31.83;;;17.60;;
24145;SDS011;12308;50.948;4.706;2022-07-21T05:11:39;27.75;;;17.65;;
24145;SDS011;12308;50.948;4.706;2022-07-21T05:14:05;31.83;;;18.50;;
24145;SDS011;12308;50.948;4.706;2022-07-21T05:16:30;35.15;;;19.95;;
24145;SDS011;12308;50.948;4.706;2022-07-21T05:18:56;35.33;;;19.15;;
24145;SDS011;12308;50.948;4.706;2022-07-21T05:21:22;32.38;;;19.75;;
24145;SDS011;12308;50.948;4.706;2022-07-21T05:23:47;36.35;;;20.27;;
24145;SDS011;12308;50.948;4.706;2022-07-21T05:26:13;36.80;;;19.67;;
24145;SDS011;12308;50.948;4.706;2022-07-21T05:28:39;29.65;;;20.00;;
24145;SDS011;12308;50.948;4.706;2022-07-21T05:31:06;33.10;;;20.42;;
24145;SDS011;12308;50.948;4.706;2022-07-21T05:33:33;35.75;;;20.17;;
24145;SDS011;12308;50.948;4.706;2022-07-21T05:35:59;33.05;;;20.55;;
24145;SDS011;12308;50.948;4.706;2022-07-21T05:38:25;37.50;;;21.60;;
24145;SDS011;12308;50.948;4.706;2022-07-21T05:40:50;42.42;;;21.15;;
24145;SDS011;12308;50.948;4.706;2022-07-21T05:43:16;40.85;;;21.50;;
24145;SDS011;12308;50.948;4.706;2022-07-21T05:45:42;40.47;;;22.02;;
24145;SDS011;12308;50.948;4.706;2022-07-21T05:48:07;39.55;;;21.80;;
24145;SDS011;12308;50.948;4.706;2022-07-21T05:50:33;34.85;;;21.15;;
24145;SDS011;12308;50.948;4.706;2022-07-21T05:52:59;43.60;;;22.70;;
24145;SDS011;12308;50.948;4.706;2022-07-21T05:55:24;36.83;;;22.45;;
24145;SDS011;12308;50.948;4.706;2022-07-21T05:57:50;39.40;;;22.75;;
24145;SDS011;12308;50.948;4.706;2022-07-21T06:00:16;36.63;;;21.63;;
24145;SDS011;12308;50.948;4.706;2022-07-21T06:02:43;41.55;;;22.67;;
24145;SDS011;12308;50.948;4.706;2022-07-21T06:05:10;40.00;;;22.77;;
24145;SDS011;12308;50.948;4.706;2022-07-21T06:07:36;37.17;;;22.42;;
24145;SDS011;12308;50.948;4.706;2022-07-21T06:10:03;37.00;;;21.23;;
24145;SDS011;12308;50.948;4.706;2022-07-21T06:12:28;38.45;;;23.00;;
24145;SDS011;12308;50.948;4.706;2022-07-21T06:14:54;37.47;;;22.45;;
24145;SDS011;12308;50.948;4.706;2022-07-21T06:17:20;38.50;;;22.17;;
24145;SDS011;12308;50.948;4.706;2022-07-21T06:19:47;45.42;;;22.75;;
24145;SDS011;12308;50.948;4.706;2022-07-21T06:22:12;36.60;;;22.52;;
24145;SDS011;12308;50.948;4.706;2022-07-21T06:24:38;32.80;;;22.63;;
24145;SDS011;12308;50.948;4.706;2022-07-21T06:27:04;39.40;;;23.73;;
24145;SDS011;12308;50.948;4.706;2022-07-21T06:29:30;38.78;;;24.25;;
24145;SDS011;12308;50.948;4.706;2022-07-21T06:31:56;33.63;;;23.85;;
24145;SDS011;12308;50.948;4.706;2022-07-21T06:34:21;39.10;;;24.73;;
24145;SDS011;12308;50.948;4.706;2022-07-21T06:36:47;44.08;;;25.80;;
24145;SDS011;12308;50.948;4.706;2022-07-21T06:39:13;37.72;;;25.40;;
24145;SDS011;12308;50.948;4.706;2022-07-21T06:41:39;42.38;;;24.55;;
24145;SDS011;12308;50.948;4.706;2022-07-21T06:44:05;37.10;;;24.38;;
24145;SDS011;12308;50.948;4.706;2022-07-21T06:46:31;42.92;;;26.40;;
24145;SDS011;12308;50.948;4.706;2022-07-21T06:48:58;40.72;;;25.50;;
24145;SDS011;12308;50.948;4.706;2022-07-21T06:51:24;39.83;;;25.85;;
24145;SDS011;12308;50.948;4.706;2022-07-21T06:53:49;39.33;;;25.67;;
24145;SDS011;12308;50.948;4.706;2022-07-21T06:56:16;41.83;;;26.65;;
24145;SDS011;12308;50.948;4.706;2022-07-21T06:58:43;49.38;;;28.23;;
24145;SDS011;12308;50.948;4.706;2022-07-21T07:01:08;45.25;;;27.55;;
24145;SDS011;12308;50.948;4.706;2022-07-21T07:03:34;46.13;;;27.80;;
24145;SDS011;12308;50.948;4.706;2022-07-21T07:06:00;42.22;;;27.00;;
24145;SDS011;12308;50.948;4.706;2022-07-21T07:08:27;58.53;;;30.27;;
24145;SDS011;12308;50.948;4.706;2022-07-21T07:10:52;44.80;;;28.88;;
24145;SDS011;12308;50.948;4.706;2022-07-21T07:13:18;48.25;;;29.35;;
24145;SDS011;12308;50.948;4.706;2022-07-21T07:15:44;50.97;;;29.48;;
24145;SDS011;12308;50.948;4.706;2022-07-21T07:18:09;46.90;;;28.63;;
24145;SDS011;12308;50.948;4.706;2022-07-21T07:20:35;51.85;;;29.55;;
24145;SDS011;12308;50.948;4.706;2022-07-21T07:23:02;52.53;;;29.15;;
24145;SDS011;12308;50.948;4.706;2022-07-21T07:25:28;52.97;;;28.30;;
24145;SDS011;12308;50.948;4.706;2022-07-21T07:27:54;45.08;;;27.08;;
24145;SDS011;12308;50.948;4.706;2022-07-21T07:30:21;45.80;;;28.00;;
24145;SDS011;12308;50.948;4.706;2022-07-21T07:32:47;44.67;;;28.17;;
24145;SDS011;12308;50.948;4.706;2022-07-21T07:35:13;56.03;;;29.60;;
24145;SDS011;12308;50.948;4.706;2022-07-21T07:37:40;53.63;;;28.27;;
24145;SDS011;12308;50.948;4.706;2022-07-21T07:40:09;51.75;;;28.27;;
24145;SDS011;12308;50.948;4.706;2022-07-21T07:42:36;54.25;;;26.65;;
24145;SDS011;12308;50.948;4.706;2022-07-21T07:45:03;53.70;;;28.08;;
24145;SDS011;12308;50.948;4.706;2022-07-21T07:47:30;50.60;;;29.10;;
24145;SDS011;12308;50.948;4.706;2022-07-21T07:49:56;60.90;;;30.08;;
24145;SDS011;12308;50.948;4.706;2022-07-21T07:52:22;55.63;;;30.58;;
24145;SDS011;12308;50.948;4.706;2022-07-21T07:54:48;57.10;;;31.85;;
24145;SDS011;12308;50.948;4.706;2022-07-21T07:57:14;68.32;;;34.35;;
24145;SDS011;12308;50.948;4.706;2022-07-21T07:59:39;64.78;;;35.30;;
24145;SDS011;12308;50.948;4.706;2022-07-21T08:02:05;77.55;;;38.65;;
24145;SDS011;12308;50.948;4.706;2022-07-21T08:04:31;85.75;;;41.70;;
24145;SDS011;12308;50.948;4.706;2022-07-21T08:06:56;94.05;;;40.75;;
24145;SDS011;12308;50.948;4.706;2022-07-21T08:09:22;88.88;;;44.20;;
24145;SDS011;12308;50.948;4.706;2022-07-21T08:11:48;96.82;;;45.55;;
24145;SDS011;12308;50.948;4.706;2022-07-21T08:14:15;99.55;;;47.42;;
24145;SDS011;12308;50.948;4.706;2022-07-21T08:16:42;116.30;;;49.45;;
24145;SDS011;12308;50.948;4.706;2022-07-21T08:19:08;103.00;;;48.42;;
24145;SDS011;12308;50.948;4.706;2022-07-21T08:21:34;114.05;;;48.83;;
24145;SDS011;12308;50.948;4.706;2022-07-21T08:24:00;117.47;;;51.65;;
24145;SDS011;12308;50.948;4.706;2022-07-21T08:26:26;111.15;;;49.70;;
24145;SDS011;12308;50.948;4.706;2022-07-21T08:28:52;111.78;;;53.08;;
24145;SDS011;12308;50.948;4.706;2022-07-21T08:31:19;115.05;;;50.28;;
24145;SDS011;12308;50.948;4.706;2022-07-21T08:33:45;113.40;;;50.80;;
24145;SDS011;12308;50.948;4.706;2022-07-21T08:36:11;115.72;;;52.97;;
24145;SDS011;12308;50.948;4.706;2022-07-21T08:38:36;120.13;;;51.58;;
24145;SDS011;12308;50.948;4.706;2022-07-21T08:41:02;109.57;;;49.15;;
24145;SDS011;12308;50.948;4.706;2022-07-21T08:43:28;103.95;;;50.72;;
24145;SDS011;12308;50.948;4.706;2022-07-21T08:45:54;114.15;;;50.58;;
24145;SDS011;12308;50.948;4.706;2022-07-21T08:48:24;105.07;;;48.50;;
24145;SDS011;12308;50.948;4.706;2022-07-21T08:50:50;99.18;;;47.95;;
24145;SDS011;12308;50.948;4.706;2022-07-21T08:53:16;96.75;;;46.65;;
24145;SDS011;12308;50.948;4.706;2022-07-21T08:55:42;96.40;;;45.20;;
24145;SDS011;12308;50.948;4.706;2022-07-21T08:58:08;88.20;;;43.67;;
24145;SDS011;12308;50.948;4.706;2022-07-21T09:00:35;92.65;;;42.58;;
24145;SDS011;12308;50.948;4.706;2022-07-21T09:05:37;85.18;;;42.97;;
24145;SDS011;12308;50.948;4.706;2022-07-21T09:08:02;85.07;;;43.65;;
24145;SDS011;12308;50.948;4.706;2022-07-21T09:10:29;82.72;;;42.95;;
24145;SDS011;12308;50.948;4.706;2022-07-21T09:12:56;81.20;;;40.08;;
24145;SDS011;12308;50.948;4.706;2022-07-21T09:15:24;77.88;;;41.45;;
24145;SDS011;12308;50.948;4.706;2022-07-21T09:18:07;76.78;;;40.55;;
24145;SDS011;12308;50.948;4.706;2022-07-21T09:20:39;73.45;;;41.55;;
24145;SDS011;12308;50.948;4.706;2022-07-21T09:23:16;73.07;;;41.72;;
24145;SDS011;12308;50.948;4.706;2022-07-21T09:25:47;73.13;;;39.15;;
24145;SDS011;12308;50.948;4.706;2022-07-21T09:30:49;56.45;;;32.88;;
24145;SDS011;12308;50.948;4.706;2022-07-21T09:33:59;56.30;;;30.90;;
24145;SDS011;12308;50.948;4.706;2022-07-21T09:36:09;57.45;;;32.05;;
24145;SDS011;12308;50.948;4.706;2022-07-21T09:38:54;58.55;;;32.95;;
24145;SDS011;12308;50.948;4.706;2022-07-21T09:41:21;60.53;;;32.80;;
24145;SDS011;12308;50.948;4.706;2022-07-21T09:43:49;54.08;;;29.88;;
24145;SDS011;12308;50.948;4.706;2022-07-21T09:46:18;52.53;;;29.27;;
24145;SDS011;12308;50.948;4.706;2022-07-21T09:48:49;44.20;;;24.42;;
24145;SDS011;12308;50.948;4.706;2022-07-21T09:56:31;41.33;;;24.90;;
24145;SDS011;12308;50.948;4.706;2022-07-21T09:59:02;45.15;;;24.73;;
24145;SDS011;12308;50.948;4.706;2022-07-21T10:01:29;40.63;;;24.45;;
24145;SDS011;12308;50.948;4.706;2022-07-21T10:03:56;38.10;;;23.52;;
24145;SDS011;12308;50.948;4.706;2022-07-21T10:06:28;42.65;;;24.02;;
24145;SDS011;12308;50.948;4.706;2022-07-21T10:08:56;36.78;;;22.40;;
24145;SDS011;12308;50.948;4.706;2022-07-21T10:11:24;35.03;;;21.42;;
24145;SDS011;12308;50.948;4.706;2022-07-21T10:13:50;37.25;;;21.38;;
24145;SDS011;12308;50.948;4.706;2022-07-21T10:16:16;28.35;;;19.35;;
24145;SDS011;12308;50.948;4.706;2022-07-21T10:18:52;31.63;;;19.88;;
24145;SDS011;12308;50.948;4.706;2022-07-21T10:23:56;29.35;;;18.60;;
24145;SDS011;12308;50.948;4.706;2022-07-21T10:26:22;25.48;;;16.90;;
24145;SDS011;12308;50.948;4.706;2022-07-21T10:28:48;29.45;;;16.83;;
24145;SDS011;12308;50.948;4.706;2022-07-21T10:41:52;28.27;;;16.77;;
24145;SDS011;12308;50.948;4.706;2022-07-21T10:46:59;27.45;;;16.33;;
24145;SDS011;12308;50.948;4.706;2022-07-21T10:55:16;28.88;;;15.07;;
24145;SDS011;12308;50.948;4.706;2022-07-21T10:57:49;22.20;;;14.35;;
24145;SDS011;12308;50.948;4.706;2022-07-21T11:00:39;24.73;;;13.70;;
24145;SDS011;12308;50.948;4.706;2022-07-21T11:08:31;21.92;;;12.07;;
24145;SDS011;12308;50.948;4.706;2022-07-21T11:24:46;28.60;;;15.07;;
24145;SDS011;12308;50.948;4.706;2022-07-21T11:27:14;30.05;;;14.98;;
24145;SDS011;12308;50.948;4.706;2022-07-21T11:29:42;24.27;;;14.75;;
24145;SDS011;12308;50.948;4.706;2022-07-21T11:32:09;27.10;;;14.52;;
24145;SDS011;12308;50.948;4.706;2022-07-21T11:34:37;25.77;;;14.40;;
24145;SDS011;12308;50.948;4.706;2022-07-21T11:37:28;33.80;;;15.50;;
24145;SDS011;12308;50.948;4.706;2022-07-21T11:39:58;27.02;;;13.75;;
24145;SDS011;12308;50.948;4.706;2022-07-21T11:42:25;26.60;;;13.63;;
24145;SDS011;12308;50.948;4.706;2022-07-21T11:44:53;23.17;;;13.77;;
24145;SDS011;12308;50.948;4.706;2022-07-21T11:47:19;24.08;;;11.85;;
24145;SDS011;12308;50.948;4.706;2022-07-21T11:49:51;22.40;;;11.68;;
24145;SDS011;12308;50.948;4.706;2022-07-21T11:52:23;17.63;;;8.70;;
24145;SDS011;12308;50.948;4.706;2022-07-21T11:54:54;14.55;;;7.50;;
24145;SDS011;12308;50.948;4.706;2022-07-21T11:57:20;23.08;;;8.40;;
24145;SDS011;12308;50.948;4.706;2022-07-21T11:59:48;15.82;;;8.75;;
24145;SDS011;12308;50.948;4.706;2022-07-21T12:02:17;18.10;;;8.75;;
24145;SDS011;12308;50.948;4.706;2022-07-21T12:04:45;17.67;;;9.60;;
24145;SDS011;12308;50.948;4.706;2022-07-21T12:07:38;14.55;;;8.60;;
24145;SDS011;12308;50.948;4.706;2022-07-21T12:10:05;13.38;;;9.07;;
24145;SDS011;12308;50.948;4.706;2022-07-21T12:12:46;16.83;;;8.75;;
24145;SDS011;12308;50.948;4.706;2022-07-21T12:15:17;16.88;;;9.07;;
24145;SDS011;12308;50.948;4.706;2022-07-21T12:17:52;18.83;;;9.63;;
24145;SDS011;12308;50.948;4.706;2022-07-21T12:20:24;20.60;;;10.85;;
24145;SDS011;12308;50.948;4.706;2022-07-21T12:22:50;13.82;;;9.18;;
24145;SDS011;12308;50.948;4.706;2022-07-21T12:25:16;16.00;;;8.93;;
24145;SDS011;12308;50.948;4.706;2022-07-21T12:27:44;17.30;;;9.15;;
24145;SDS011;12308;50.948;4.706;2022-07-21T12:30:29;23.30;;;9.35;;
24145;SDS011;12308;50.948;4.706;2022-07-21T12:33:04;18.70;;;10.70;;
24145;SDS011;12308;50.948;4.706;2022-07-21T12:35:30;16.80;;;10.23;;
24145;SDS011;12308;50.948;4.706;2022-07-21T12:37:58;23.52;;;11.30;;
24145;SDS011;12308;50.948;4.706;2022-07-21T12:40:27;26.27;;;12.50;;
24145;SDS011;12308;50.948;4.706;2022-07-21T12:43:10;21.40;;;12.35;;
24145;SDS011;12308;50.948;4.706;2022-07-21T12:48:14;39.08;;;15.35;;
24145;SDS011;12308;50.948;4.706;2022-07-21T12:51:02;25.02;;;13.52;;
24145;SDS011;12308;50.948;4.706;2022-07-21T12:53:32;25.20;;;15.38;;
24145;SDS011;12308;50.948;4.706;2022-07-21T12:55:58;27.35;;;16.25;;
24145;SDS011;12308;50.948;4.706;2022-07-21T12:58:24;24.80;;;16.23;;
24145;SDS011;12308;50.948;4.706;2022-07-21T13:00:50;23.63;;;15.52;;
24145;SDS011;12308;50.948;4.706;2022-07-21T13:03:16;28.55;;;16.05;;
24145;SDS011;12308;50.948;4.706;2022-07-21T13:05:41;26.92;;;16.15;;
24145;SDS011;12308;50.948;4.706;2022-07-21T13:08:07;24.75;;;13.50;;
24145;SDS011;12308;50.948;4.706;2022-07-21T13:10:33;29.73;;;14.52;;
24145;SDS011;12308;50.948;4.706;2022-07-21T13:12:59;29.83;;;13.25;;
24145;SDS011;12308;50.948;4.706;2022-07-21T13:15:25;31.15;;;13.35;;
24145;SDS011;12308;50.948;4.706;2022-07-21T13:17:51;25.92;;;13.27;;
24145;SDS011;12308;50.948;4.706;2022-07-21T13:20:16;21.27;;;12.00;;
24145;SDS011;12308;50.948;4.706;2022-07-21T13:22:42;23.98;;;11.32;;
24145;SDS011;12308;50.948;4.706;2022-07-21T13:25:08;24.02;;;10.10;;
24145;SDS011;12308;50.948;4.706;2022-07-21T13:27:35;21.10;;;9.88;;
24145;SDS011;12308;50.948;4.706;2022-07-21T13:30:03;20.80;;;10.35;;
24145;SDS011;12308;50.948;4.706;2022-07-21T13:32:30;21.45;;;10.40;;
24145;SDS011;12308;50.948;4.706;2022-07-21T13:34:58;25.27;;;11.68;;
24145;SDS011;12308;50.948;4.706;2022-07-21T13:37:24;20.42;;;11.68;;
24145;SDS011;12308;50.948;4.706;2022-07-21T13:39:50;25.05;;;11.95;;
24145;SDS011;12308;50.948;4.706;2022-07-21T13:42:15;27.35;;;12.57;;
24145;SDS011;12308;50.948;4.706;2022-07-21T13:44:41;21.02;;;11.38;;
24145;SDS011;12308;50.948;4.706;2022-07-21T13:47:07;25.52;;;11.32;;
24145;SDS011;12308;50.948;4.706;2022-07-21T13:49:33;18.88;;;11.15;;
24145;SDS011;12308;50.948;4.706;2022-07-21T13:51:58;21.90;;;10.63;;
24145;SDS011;12308;50.948;4.706;2022-07-21T13:54:24;24.02;;;11.82;;
24145;SDS011;12308;50.948;4.706;2022-07-21T13:56:50;23.13;;;12.07;;
24145;SDS011;12308;50.948;4.706;2022-07-21T13:59:16;20.67;;;11.55;;
24145;SDS011;12308;50.948;4.706;2022-07-21T14:01:42;24.83;;;12.27;;
24145;SDS011;12308;50.948;4.706;2022-07-21T14:04:08;30.70;;;14.75;;
24145;SDS011;12308;50.948;4.706;2022-07-21T14:06:33;28.10;;;14.80;;
24145;SDS011;12308;50.948;4.706;2022-07-21T14:08:59;23.08;;;14.10;;
24145;SDS011;12308;50.948;4.706;2022-07-21T14:11:25;27.50;;;14.80;;
24145;SDS011;12308;50.948;4.706;2022-07-21T14:13:53;26.10;;;15.38;;
24145;SDS011;12308;50.948;4.706;2022-07-21T14:16:19;34.15;;;16.88;;
24145;SDS011;12308;50.948;4.706;2022-07-21T14:18:45;29.88;;;15.50;;
24145;SDS011;12308;50.948;4.706;2022-07-21T14:21:11;31.75;;;14.85;;
24145;SDS011;12308;50.948;4.706;2022-07-21T14:23:36;32.40;;;14.38;;
24145;SDS011;12308;50.948;4.706;2022-07-21T14:26:02;30.83;;;13.07;;
24145;SDS011;12308;50.948;4.706;2022-07-21T14:28:28;23.92;;;11.05;;
24145;SDS011;12308;50.948;4.706;2022-07-21T14:30:54;27.73;;;10.07;;
24145;SDS011;12308;50.948;4.706;2022-07-21T14:33:20;21.23;;;8.23;;
24145;SDS011;12308;50.948;4.706;2022-07-21T14:35:46;22.95;;;7.95;;
24145;SDS011;12308;50.948;4.706;2022-07-21T14:38:11;22.27;;;8.15;;
24145;SDS011;12308;50.948;4.706;2022-07-21T14:40:37;22.77;;;7.82;;
24145;SDS011;12308;50.948;4.706;2022-07-21T14:43:03;23.50;;;8.02;;
24145;SDS011;12308;50.948;4.706;2022-07-21T14:45:30;24.85;;;7.78;;
24145;SDS011;12308;50.948;4.706;2022-07-21T14:47:56;23.33;;;7.68;;
24145;SDS011;12308;50.948;4.706;2022-07-21T14:50:23;24.10;;;7.60;;
24145;SDS011;12308;50.948;4.706;2022-07-21T14:52:50;20.23;;;7.78;;
24145;SDS011;12308;50.948;4.706;2022-07-21T14:55:16;22.98;;;7.72;;
24145;SDS011;12308;50.948;4.706;2022-07-21T14:57:42;17.67;;;7.05;;
24145;SDS011;12308;50.948;4.706;2022-07-21T15:00:09;18.45;;;6.97;;
24145;SDS011;12308;50.948;4.706;2022-07-21T15:02:35;19.88;;;7.05;;
24145;SDS011;12308;50.948;4.706;2022-07-21T15:05:01;19.02;;;6.20;;
24145;SDS011;12308;50.948;4.706;2022-07-21T15:07:28;18.40;;;6.47;;
24145;SDS011;12308;50.948;4.706;2022-07-21T15:09:53;20.30;;;6.93;;
24145;SDS011;12308;50.948;4.706;2022-07-21T15:12:21;19.65;;;5.82;;
24145;SDS011;12308;50.948;4.706;2022-07-21T15:14:47;19.70;;;5.72;;
24145;SDS011;12308;50.948;4.706;2022-07-21T15:17:13;20.08;;;5.38;;